Time,TemperatureF,DewpointF,PressureIn,WindDirection,WindDirectionDegrees,WindSpeedMPH,WindSpeedGustMPH,Humidity,HourlyPrecipIn,Conditions,Clouds,dailyrainin,SolarRadiationWatts/m^2,SoftwareType,DateUTC
2013-04-17 00:01:00,73.5,67.7,29.88,SE,133,5.8,5.8,82,0.00,CLR,OVC,0.00,0.0,WeatherDisplay:10.37,2013-04-17 05:01:00,
2013-04-17 00:06:00,73.4,67.6,29.89,ESE,117,6.9,6.9,82,0.00,CLR,OVC,0.00,0.0,WeatherDisplay:10.37,2013-04-17 05:06:00,
2013-04-17 00:11:00,73.4,67.6,29.89,SE,133,3.5,3.5,82,0.00,CLR,OVC,0.00,0.0,WeatherDisplay:10.37,2013-04-17 05:11:00,
2013-04-17 00:16:00,73.4,67.6,29.89,SE,144,3.5,3.5,82,0.00,CLR,OVC,0.00,0.0,WeatherDisplay:10.37,2013-04-17 05:16:00,
2013-04-17 00:21:00,73.3,67.5,29.89,SE,139,5.8,5.8,82,0.00,CLR,OVC,0.00,0.0,WeatherDisplay:10.37,2013-04-17 05:21:00,
2013-04-17 00:26:00,73.2,67.7,29.89,SE,142,4.6,4.6,83,0.00,CLR,OVC,0.00,0.0,WeatherDisplay:10.37,2013-04-17 05:26:00,
2013-04-17 00:31:00,73.1,67.6,29.89,ESE,115,5.8,5.8,83,0.00,CLR,OVC,0.00,0.0,WeatherDisplay:10.37,2013-04-17 05:31:00,
2013-04-17 00:36:00,73.0,67.5,29.89,SSE,149,9.2,9.2,83,0.00,CLR,OVC,0.00,0.0,WeatherDisplay:10.37,2013-04-17 05:36:00,
2013-04-17 00:41:00,72.9,67.4,29.89,SE,139,5.8,5.8,83,0.00,CLR,OVC,0.00,0.0,WeatherDisplay:10.37,2013-04-17 05:41:00,
2013-04-17 00:46:00,72.8,67.7,29.89,ESE,120,10.0,10.0,84,0.00,CLR,OVC,0.00,0.0,WeatherDisplay:10.37,2013-04-17 05:46:00,
2013-04-17 00:51:00,72.7,67.6,29.89,ESE,121,4.6,4.6,84,0.00,CLR,OVC,0.00,0.0,WeatherDisplay:10.37,2013-04-17 05:51:00,
2013-04-17 00:56:00,72.6,67.5,29.89,SSE,148,4.6,4.6,84,0.00,CLR,OVC,0.00,0.0,WeatherDisplay:10.37,2013-04-17 05:56:00,
2013-04-17 01:01:00,72.5,67.4,29.89,SE,146,4.6,4.6,84,0.00,CLR,OVC,0.00,0.0,WeatherDisplay:10.37,2013-04-17 06:01:00,
2013-04-17 01:06:00,72.4,67.6,29.89,SE,136,4.6,4.6,85,0.00,CLR,OVC,0.00,0.0,WeatherDisplay:10.37,2013-04-17 06:06:00,
2013-04-17 01:11:00,72.3,67.5,29.89,SE,133,3.5,3.5,85,0.00,CLR,OVC,0.00,0.0,WeatherDisplay:10.37,2013-04-17 06:11:00,
2013-04-17 01:16:00,72.2,67.4,29.89,SE,145,4.0,4.0,85,0.00,CLR,OVC,0.00,0.0,WeatherDisplay:10.37,2013-04-17 06:16:00,
2013-04-17 01:21:00,72.1,67.3,29.89,SE,140,5.8,5.8,85,0.00,CLR,OVC,0.00,0.0,WeatherDisplay:10.37,2013-04-17 06:21:00,
2013-04-17 01:26:00,72.0,67.2,29.89,SE,141,4.6,4.6,85,0.00,CLR,OVC,0.00,0.0,WeatherDisplay:10.37,2013-04-17 06:26:00,
2013-04-17 01:31:00,72.0,67.2,29.89,SSE,149,4.6,4.6,85,0.00,CLR,OVC,0.00,0.0,WeatherDisplay:10.37,2013-04-17 06:31:00,
2013-04-17 01:36:00,72.0,67.6,29.89,SE,144,4.6,4.6,86,0.00,CLR,OVC,0.00,0.0,WeatherDisplay:10.37,2013-04-17 06:36:00,
2013-04-17 01:41:00,72.0,67.6,29.88,SE,138,3.5,3.5,86,0.00,CLR,OVC,0.00,0.0,WeatherDisplay:10.37,2013-04-17 06:41:00,
2013-04-17 01:46:00,72.0,67.6,29.88,SE,140,4.6,4.6,86,0.00,CLR,OVC,0.00,0.0,WeatherDisplay:10.37,2013-04-17 06:46:00,
2013-04-17 01:51:00,72.0,67.6,29.88,SE,140,3.5,3.5,86,0.00,CLR,OVC,0.00,0.0,WeatherDisplay:10.37,2013-04-17 06:51:00,
2013-04-17 01:56:00,72.0,67.6,29.88,SE,137,3.5,3.5,86,0.00,CLR,OVC,0.00,0.0,WeatherDisplay:10.37,2013-04-17 06:56:00,
2013-04-17 02:01:00,72.0,67.6,29.88,SE,144,6.9,6.9,86,0.00,CLR,OVC,0.00,0.0,WeatherDisplay:10.37,2013-04-17 07:01:00,
2013-04-17 02:06:00,72.1,67.7,29.88,ENE,78,3.5,3.5,86,0.00,CLR,OVC,0.00,0.0,WeatherDisplay:10.37,2013-04-17 07:06:00,
2013-04-17 02:11:00,72.1,67.7,29.88,SE,141,3.5,3.5,86,0.00,CLR,OVC,0.00,0.0,WeatherDisplay:10.37,2013-04-17 07:11:00,
2013-04-17 02:16:00,72.1,67.7,29.88,South,175,6.9,6.9,86,0.00,CLR,OVC,0.00,0.0,WeatherDisplay:10.37,2013-04-17 07:16:00,
2013-04-17 02:21:00,72.1,67.7,29.88,SE,133,6.9,6.9,86,0.00,CLR,OVC,0.00,0.0,WeatherDisplay:10.37,2013-04-17 07:21:00,
2013-04-17 02:26:00,72.1,67.7,29.88,SE,138,4.6,4.6,86,0.00,CLR,OVC,0.00,0.0,WeatherDisplay:10.37,2013-04-17 07:26:00,
2013-04-17 02:31:00,72.2,67.8,29.88,SSE,159,4.6,4.6,86,0.00,CLR,OVC,0.00,0.0,WeatherDisplay:10.37,2013-04-17 07:31:00,
2013-04-17 02:36:00,72.2,67.8,29.88,SSE,152,6.9,6.9,86,0.00,CLR,OVC,0.00,0.0,WeatherDisplay:10.37,2013-04-17 07:36:00,
2013-04-17 02:41:00,72.2,67.8,29.88,SE,128,6.9,6.9,86,0.00,CLR,OVC,0.00,0.0,WeatherDisplay:10.37,2013-04-17 07:41:00,
2013-04-17 02:46:00,72.2,67.8,29.87,SE,126,5.8,5.8,86,0.00,CLR,OVC,0.00,0.0,WeatherDisplay:10.37,2013-04-17 07:46:00,
2013-04-17 02:51:00,72.2,67.8,29.87,SE,132,4.6,4.6,86,0.00,CLR,OVC,0.00,0.0,WeatherDisplay:10.37,2013-04-17 07:51:00,
2013-04-17 02:56:00,72.2,68.1,29.87,SSE,147,5.8,5.8,87,0.00,CLR,OVC,0.00,0.0,WeatherDisplay:10.37,2013-04-17 07:56:00,
2013-04-17 03:01:00,72.2,68.1,29.87,SSE,154,7.0,7.0,87,0.00,CLR,OVC,0.00,0.0,WeatherDisplay:10.37,2013-04-17 08:01:00,
2013-04-17 03:06:00,72.2,68.1,29.87,SSE,149,3.5,3.5,87,0.00,CLR,OVC,0.00,0.0,WeatherDisplay:10.37,2013-04-17 08:06:00,
2013-04-17 03:11:00,72.2,68.1,29.87,SSE,164,6.0,6.0,87,0.00,CLR,OVC,0.00,0.0,WeatherDisplay:10.37,2013-04-17 08:11:00,
2013-04-17 03:16:00,72.1,68.3,29.87,ESE,122,9.2,9.2,88,0.00,CLR,OVC,0.00,0.0,WeatherDisplay:10.37,2013-04-17 08:16:00,
2013-04-17 03:21:00,72.0,68.2,29.87,SE,138,4.6,4.6,88,0.00,CLR,OVC,0.00,0.0,WeatherDisplay:10.37,2013-04-17 08:21:00,
2013-04-17 03:26:00,71.9,68.5,29.87,SE,144,10.0,10.0,89,0.00,CLR,OVC,0.00,0.0,WeatherDisplay:10.37,2013-04-17 08:26:00,
2013-04-17 03:31:00,71.7,68.3,29.86,SSE,167,3.5,3.5,89,0.00,CLR,OVC,0.00,0.0,WeatherDisplay:10.37,2013-04-17 08:31:00,
2013-04-17 03:36:00,71.6,68.5,29.86,SSE,148,3.5,3.5,90,0.00,CLR,OVC,0.00,0.0,WeatherDisplay:10.37,2013-04-17 08:36:00,
2013-04-17 03:41:00,71.4,68.3,29.86,South,175,6.9,6.9,90,0.00,CLR,OVC,0.00,0.0,WeatherDisplay:10.37,2013-04-17 08:41:00,
2013-04-17 03:46:00,71.3,68.5,29.86,SSE,164,3.5,3.5,91,0.00,CLR,OVC,0.00,0.0,WeatherDisplay:10.37,2013-04-17 08:46:00,
2013-04-17 03:51:00,71.3,68.5,29.86,SSE,148,3.5,3.5,91,0.00,CLR,OVC,0.00,0.0,WeatherDisplay:10.37,2013-04-17 08:51:00,
2013-04-17 03:56:00,71.3,68.5,29.86,SE,126,5.8,5.8,91,0.00,CLR,OVC,0.00,0.0,WeatherDisplay:10.37,2013-04-17 08:56:00,
2013-04-17 04:01:00,71.3,68.5,29.86,South,174,3.5,3.5,91,0.00,CLR,OVC,0.00,0.0,WeatherDisplay:10.37,2013-04-17 09:01:00,
2013-04-17 04:06:00,71.3,68.9,29.86,SE,141,4.6,4.6,92,0.00,CLR,OVC,0.00,0.0,WeatherDisplay:10.37,2013-04-17 09:06:00,
2013-04-17 04:11:00,71.3,68.9,29.86,SE,135,9.2,9.2,92,0.00,CLR,OVC,0.00,0.0,WeatherDisplay:10.37,2013-04-17 09:11:00,
2013-04-17 04:16:00,71.3,68.9,29.86,SSE,156,5.0,5.0,92,0.00,CLR,OVC,0.00,0.0,WeatherDisplay:10.37,2013-04-17 09:16:00,
2013-04-17 04:21:00,71.4,69.0,29.85,ESE,119,4.6,4.6,92,0.00,CLR,OVC,0.00,0.0,WeatherDisplay:10.37,2013-04-17 09:21:00,
2013-04-17 04:26:00,71.5,69.1,29.86,SSE,150,5.8,5.8,92,0.00,CLR,OVC,0.00,0.0,WeatherDisplay:10.37,2013-04-17 09:26:00,
2013-04-17 04:31:00,71.6,69.2,29.85,SE,134,3.5,3.5,92,0.00,CLR,OVC,0.00,0.0,WeatherDisplay:10.37,2013-04-17 09:31:00,
2013-04-17 04:36:00,71.6,69.2,29.85,SE,128,5.0,5.0,92,0.00,CLR,OVC,0.00,0.0,WeatherDisplay:10.37,2013-04-17 09:36:00,
2013-04-17 04:41:00,71.7,69.3,29.85,ESE,123,8.1,8.1,92,0.00,CLR,OVC,0.00,0.0,WeatherDisplay:10.37,2013-04-17 09:41:00,
2013-04-17 04:46:00,71.8,69.3,29.86,SE,128,3.5,3.5,92,0.00,CLR,OVC,0.00,0.0,WeatherDisplay:10.37,2013-04-17 09:46:00,
2013-04-17 04:51:00,71.8,69.3,29.85,SE,137,5.0,5.0,92,0.00,CLR,OVC,0.00,0.0,WeatherDisplay:10.37,2013-04-17 09:51:00,
2013-04-17 04:56:00,71.9,69.4,29.85,SE,142,8.1,8.1,92,0.00,CLR,OVC,0.00,0.0,WeatherDisplay:10.37,2013-04-17 09:56:00,
2013-04-17 05:01:00,72.0,69.5,29.85,SE,143,10.4,10.4,92,0.00,CLR,OVC,0.00,0.0,WeatherDisplay:10.37,2013-04-17 10:01:00,
2013-04-17 05:06:00,72.0,69.5,29.85,SE,129,5.8,5.8,92,0.00,CLR,OVC,0.00,0.0,WeatherDisplay:10.37,2013-04-17 10:06:00,
2013-04-17 05:11:00,72.1,69.6,29.85,SSE,152,4.6,4.6,92,0.00,CLR,OVC,0.00,0.0,WeatherDisplay:10.37,2013-04-17 10:11:00,
2013-04-17 05:16:00,72.2,69.7,29.85,SE,129,4.6,4.6,92,0.00,CLR,OVC,0.00,0.0,WeatherDisplay:10.37,2013-04-17 10:16:00,
2013-04-17 05:22:00,72.2,69.7,29.85,SSE,147,5.8,5.8,92,0.00,CLR,OVC,0.00,0.0,WeatherDisplay:10.37,2013-04-17 10:22:00,
2013-04-17 05:27:00,72.3,69.8,29.85,ESE,115,9.2,9.2,92,0.00,CLR,OVC,0.00,0.0,WeatherDisplay:10.37,2013-04-17 10:27:00,
2013-04-17 05:32:00,72.4,69.6,29.86,SE,137,6.9,6.9,91,0.00,CLR,OVC,0.00,0.0,WeatherDisplay:10.37,2013-04-17 10:32:00,
2013-04-17 05:37:00,72.4,69.6,29.86,ESE,107,8.1,8.1,91,0.00,CLR,OVC,0.00,0.0,WeatherDisplay:10.37,2013-04-17 10:37:00,
2013-04-17 05:42:00,72.5,69.7,29.86,ESE,121,6.9,6.9,91,0.00,CLR,OVC,0.00,0.0,WeatherDisplay:10.37,2013-04-17 10:42:00,
2013-04-17 05:47:00,72.5,69.7,29.86,SE,129,9.2,9.2,91,0.00,CLR,OVC,0.00,0.0,WeatherDisplay:10.37,2013-04-17 10:47:00,
2013-04-17 05:52:00,72.5,69.7,29.86,SE,145,5.8,5.8,91,0.00,CLR,OVC,0.00,0.0,WeatherDisplay:10.37,2013-04-17 10:52:00,
2013-04-17 05:57:00,72.4,69.6,29.86,SE,131,6.9,6.9,91,0.00,CLR,OVC,0.00,0.0,WeatherDisplay:10.37,2013-04-17 10:57:00,
2013-04-17 06:02:00,72.3,69.5,29.86,SE,129,6.9,6.9,91,0.00,CLR,OVC,0.00,0.0,WeatherDisplay:10.37,2013-04-17 11:02:00,
2013-04-17 06:07:00,72.2,69.4,29.86,ESE,121,10.4,10.4,91,0.00,CLR,OVC,0.00,0.0,WeatherDisplay:10.37,2013-04-17 11:07:00,
2013-04-17 06:12:00,72.1,69.3,29.85,East,96,6.9,6.9,91,0.00,CLR,OVC,0.00,0.0,WeatherDisplay:10.37,2013-04-17 11:12:00,
2013-04-17 06:17:00,72.0,69.2,29.85,ESE,123,9.2,9.2,91,0.00,CLR,OVC,0.00,0.0,WeatherDisplay:10.37,2013-04-17 11:17:00,
2013-04-17 06:22:00,71.9,69.1,29.85,ESE,122,6.9,6.9,91,0.00,CLR,OVC,0.00,0.0,WeatherDisplay:10.37,2013-04-17 11:22:00,
2013-04-17 06:27:00,71.9,69.1,29.86,SE,128,9.2,9.2,91,0.00,CLR,OVC,0.00,0.0,WeatherDisplay:10.37,2013-04-17 11:27:00,
2013-04-17 06:32:00,71.9,69.1,29.86,SE,131,9.2,9.2,91,0.00,CLR,OVC,0.00,0.0,WeatherDisplay:10.37,2013-04-17 11:32:00,
2013-04-17 06:37:00,71.8,69.0,29.86,ESE,120,4.6,4.6,91,0.00,CLR,OVC,0.00,0.0,WeatherDisplay:10.37,2013-04-17 11:37:00,
2013-04-17 06:42:00,71.9,69.1,29.86,SSE,156,3.5,3.5,91,0.00,CLR,OVC,0.00,0.0,WeatherDisplay:10.37,2013-04-17 11:42:00,
2013-04-17 06:47:00,71.9,69.1,29.86,SE,135,6.9,6.9,91,0.00,CLR,OVC,0.00,0.0,WeatherDisplay:10.37,2013-04-17 11:47:00,
2013-04-17 06:52:00,71.9,69.1,29.87,SE,142,5.8,5.8,91,0.00,CLR,OVC,0.00,0.0,WeatherDisplay:10.37,2013-04-17 11:52:00,
2013-04-17 06:57:00,72.0,68.9,29.87,SE,130,4.6,4.6,90,0.00,CLR,OVC,0.00,0.0,WeatherDisplay:10.37,2013-04-17 11:57:00,
2013-04-17 07:02:00,72.0,68.9,29.87,SSE,163,6.9,6.9,90,0.00,CLR,OVC,0.00,0.0,WeatherDisplay:10.37,2013-04-17 12:02:00,
2013-04-17 07:07:00,72.1,68.7,29.87,ESE,120,10.4,10.4,89,0.00,CLR,OVC,0.00,0.0,WeatherDisplay:10.37,2013-04-17 12:07:00,
2013-04-17 07:12:00,72.2,68.8,29.87,ESE,115,6.9,6.9,89,0.00,CLR,OVC,0.00,0.5,WeatherDisplay:10.37,2013-04-17 12:12:00,
2013-04-17 07:17:00,72.3,68.5,29.87,ESE,120,8.1,8.1,88,0.00,CLR,OVC,0.00,0.0,WeatherDisplay:10.37,2013-04-17 12:17:00,
2013-04-17 07:22:00,72.4,68.6,29.87,SE,130,10.4,10.4,88,0.00,CLR,OVC,0.00,0.5,WeatherDisplay:10.37,2013-04-17 12:22:00,
2013-04-17 07:27:00,72.4,68.6,29.87,ESE,118,6.9,6.9,88,0.00,CLR,OVC,0.00,0.7,WeatherDisplay:10.37,2013-04-17 12:27:00,
2013-04-17 07:32:00,72.4,68.3,29.87,ESE,119,6.9,6.9,87,0.00,CLR,OVC,0.00,0.7,WeatherDisplay:10.37,2013-04-17 12:32:00,
2013-04-17 07:37:00,72.5,68.4,29.87,SE,136,12.7,12.7,87,0.00,CLR,OVC,0.00,0.9,WeatherDisplay:10.37,2013-04-17 12:37:00,
2013-04-17 07:42:00,72.5,68.4,29.87,SE,125,9.2,9.2,87,0.00,CLR,OVC,0.00,1.9,WeatherDisplay:10.37,2013-04-17 12:42:00,
2013-04-17 07:47:00,72.5,68.4,29.87,SSE,155,6.9,6.9,87,0.00,CLR,OVC,0.00,1.9,WeatherDisplay:10.37,2013-04-17 12:47:00,
2013-04-17 07:52:00,72.6,68.2,29.87,SE,136,10.4,10.4,86,0.00,CLR,OVC,0.00,3.0,WeatherDisplay:10.37,2013-04-17 12:52:00,
2013-04-17 08:11:00,72.6,68.2,29.88,ESE,117,6.9,0.0,86,0.00,CLR,OVC,0.00,5.1,WeatherDisplay:10.37,2013-04-17 13:11:00,
2013-04-17 08:16:00,72.6,68.2,29.88,SE,129,8.1,8.1,86,0.00,OVC,,0.00,7.0,WeatherDisplay:10.37,2013-04-17 13:16:00,
2013-04-17 08:21:00,72.4,68.3,29.88,SE,130,11.5,11.5,87,0.00,OVC,,0.00,4.9,WeatherDisplay:10.37,2013-04-17 13:21:00,
2013-04-17 08:26:00,71.9,68.2,29.87,SE,136,10.4,10.4,88,0.00,OVC,,0.00,5.6,WeatherDisplay:10.37,2013-04-17 13:26:00,
2013-04-17 08:31:00,71.5,67.8,29.88,SE,138,12.7,12.7,88,0.02,RA,OVC,0.02,4.7,WeatherDisplay:10.37,2013-04-17 13:31:00,
2013-04-17 08:36:00,71.3,67.9,29.88,SSE,150,12.7,12.7,89,0.02,RA,OVC,0.02,6.3,WeatherDisplay:10.37,2013-04-17 13:36:00,
2013-04-17 08:41:00,71.3,67.9,29.88,SE,126,11.5,11.5,89,0.02,OVC,,0.02,7.4,WeatherDisplay:10.37,2013-04-17 13:41:00,
2013-04-17 08:46:00,71.3,67.9,29.87,SE,127,6.9,6.9,89,0.02,OVC,,0.02,5.6,WeatherDisplay:10.37,2013-04-17 13:46:00,
2013-04-17 08:51:00,71.3,67.9,29.87,SE,131,11.5,11.5,89,0.02,OVC,,0.02,6.9,WeatherDisplay:10.37,2013-04-17 13:51:00,
2013-04-17 08:56:00,71.5,67.8,29.86,SE,134,10.4,10.4,88,0.02,OVC,,0.02,7.6,WeatherDisplay:10.37,2013-04-17 13:56:00,
2013-04-17 09:01:00,71.7,68.0,29.86,ESE,102,12.7,12.7,88,0.02,OVC,,0.02,10.4,WeatherDisplay:10.37,2013-04-17 14:01:00,
2013-04-17 09:06:00,72.0,67.9,29.86,SE,134,11.5,11.5,87,0.02,OVC,,0.02,12.5,WeatherDisplay:10.37,2013-04-17 14:06:00,
2013-04-17 09:11:00,72.3,67.9,29.86,SSE,153,11.5,11.5,86,0.02,OVC,,0.02,14.2,WeatherDisplay:10.37,2013-04-17 14:11:00,
2013-04-17 09:16:00,72.5,68.1,29.86,SE,137,11.5,11.5,86,0.02,OVC,,0.02,13.9,WeatherDisplay:10.37,2013-04-17 14:16:00,
2013-04-17 09:21:00,72.7,67.9,29.86,SSE,151,11.5,11.5,85,0.02,OVC,,0.02,15.1,WeatherDisplay:10.37,2013-04-17 14:21:00,
2013-04-17 09:26:00,73.0,68.2,29.86,SE,126,9.2,9.2,85,0.02,OVC,,0.02,19.5,WeatherDisplay:10.37,2013-04-17 14:26:00,
2013-04-17 09:31:00,73.3,68.2,29.86,SE,139,10.4,10.4,84,0.00,OVC,,0.02,18.8,WeatherDisplay:10.37,2013-04-17 14:31:00,
2013-04-17 09:36:00,73.6,68.5,29.85,SE,136,10.4,10.4,84,0.00,OVC,,0.02,22.1,WeatherDisplay:10.37,2013-04-17 14:36:00,
2013-04-17 11:58:00,78.9,68.3,29.82,ESE,122,15.0,15.0,70,0.00,OVC,,0.02,33.0,WeatherDisplay:10.37,2013-04-17 16:58:00,
2013-04-17 12:03:00,79.4,68.3,29.82,SE,133,11.5,11.5,69,0.00,OVC,,0.02,82.6,WeatherDisplay:10.37,2013-04-17 17:03:00,
2013-04-17 12:08:00,79.8,68.3,29.82,SE,132,16.1,16.1,68,0.00,OVC,,0.02,55.9,WeatherDisplay:10.37,2013-04-17 17:08:00,
2013-04-17 12:13:00,79.8,68.7,29.82,SE,132,8.1,8.1,69,0.00,OVC,,0.02,95.4,WeatherDisplay:10.37,2013-04-17 17:13:00,
2013-04-17 12:18:00,80.4,68.9,29.81,ESE,121,8.1,8.1,68,0.00,OVC,,0.02,96.2,WeatherDisplay:10.37,2013-04-17 17:18:00,
2013-04-17 12:23:00,80.9,68.9,29.81,SE,132,8.1,8.1,67,0.00,OVC,,0.02,96.0,WeatherDisplay:10.37,2013-04-17 17:23:00,
2013-04-17 12:28:00,81.3,68.9,29.81,ESE,113,16.1,16.1,66,0.00,OVC,,0.02,94.9,WeatherDisplay:10.37,2013-04-17 17:28:00,
2013-04-17 12:33:00,81.5,68.6,29.80,SE,128,19.6,19.6,65,0.00,OVC,,0.02,96.2,WeatherDisplay:10.37,2013-04-17 17:33:00,
2013-04-17 12:38:00,81.8,68.9,29.80,East,82,18.4,18.4,65,0.00,OVC,,0.02,43.2,WeatherDisplay:10.37,2013-04-17 17:38:00,
2013-04-17 12:43:00,81.8,68.9,29.80,ESE,114,10.4,10.4,65,0.00,OVC,,0.02,94.4,WeatherDisplay:10.37,2013-04-17 17:43:00,
2013-04-17 12:48:00,82.0,69.1,29.80,SE,132,15.0,15.0,65,0.00,OVC,,0.02,92.6,WeatherDisplay:10.37,2013-04-17 17:48:00,
2013-04-17 12:53:00,82.1,68.7,29.80,SSE,153,16.1,16.1,64,0.00,OVC,,0.02,94.7,WeatherDisplay:10.37,2013-04-17 17:53:00,
2013-04-17 12:58:00,82.4,69.0,29.79,East,96,11.5,11.5,64,0.00,OVC,,0.02,92.6,WeatherDisplay:10.37,2013-04-17 17:58:00,
2013-04-17 13:03:00,82.9,69.0,29.78,SE,144,13.8,13.8,63,0.00,OVC,,0.02,92.3,WeatherDisplay:10.37,2013-04-17 18:03:00,
2013-04-17 13:08:00,83.4,69.5,29.78,ESE,112,10.4,10.4,63,0.00,OVC,,0.02,92.3,WeatherDisplay:10.37,2013-04-17 18:08:00,
2013-04-17 13:13:00,83.6,69.7,29.78,SSE,157,10.4,10.4,63,0.00,OVC,,0.02,89.3,WeatherDisplay:10.37,2013-04-17 18:13:00,
2013-04-17 13:18:00,83.9,69.5,29.77,ESE,118,10.4,10.4,62,0.00,OVC,,0.02,88.6,WeatherDisplay:10.37,2013-04-17 18:18:00,
2013-04-17 13:23:00,84.0,69.1,29.77,SSW,192,16.1,16.1,61,0.00,OVC,,0.02,87.5,WeatherDisplay:10.37,2013-04-17 18:23:00,
2013-04-17 13:28:00,84.0,69.6,29.77,SE,126,16.1,16.1,62,0.00,OVC,,0.02,90.0,WeatherDisplay:10.37,2013-04-17 18:28:00,
2013-04-17 13:33:00,83.8,68.9,29.76,ESE,113,16.1,16.1,61,0.00,OVC,,0.02,91.2,WeatherDisplay:10.37,2013-04-17 18:33:00,
2013-04-17 13:38:00,83.6,68.7,29.76,SSE,164,19.0,19.0,61,0.00,OVC,,0.02,89.6,WeatherDisplay:10.37,2013-04-17 18:38:00,
2013-04-17 13:43:00,83.7,68.8,29.76,South,178,11.5,11.5,61,0.00,OVC,,0.02,27.6,WeatherDisplay:10.37,2013-04-17 18:43:00,
2013-04-17 13:48:00,83.6,69.2,29.76,SE,133,11.5,11.5,62,0.00,OVC,,0.02,92.5,WeatherDisplay:10.37,2013-04-17 18:48:00,
2013-04-17 13:53:00,83.8,69.4,29.75,SE,144,12.7,12.7,62,0.00,OVC,,0.02,88.9,WeatherDisplay:10.37,2013-04-17 18:53:00,
2013-04-17 13:58:00,83.7,68.8,29.75,SE,134,13.8,13.8,61,0.00,OVC,,0.02,93.5,WeatherDisplay:10.37,2013-04-17 18:58:00,
2013-04-17 14:03:00,83.8,69.4,29.75,SE,146,15.0,15.0,62,0.00,OVC,,0.02,86.7,WeatherDisplay:10.37,2013-04-17 19:03:00,
2013-04-17 14:08:00,84.2,69.8,29.75,SE,145,12.7,12.7,62,0.00,OVC,,0.02,91.1,WeatherDisplay:10.37,2013-04-17 19:08:00,
2013-04-17 14:13:00,84.3,69.4,29.75,South,172,17.3,17.3,61,0.00,OVC,,0.02,86.5,WeatherDisplay:10.37,2013-04-17 19:13:00,
2013-04-17 14:18:00,84.6,69.7,29.75,South,170,12.7,12.7,61,0.00,OVC,,0.02,84.7,WeatherDisplay:10.37,2013-04-17 19:18:00,
2013-04-17 14:23:00,84.4,69.5,29.75,ESE,121,11.5,11.5,61,0.00,OVC,,0.02,88.8,WeatherDisplay:10.37,2013-04-17 19:23:00,
2013-04-17 14:28:00,84.8,69.9,29.74,SE,130,11.5,11.5,61,0.00,OVC,,0.02,99.1,WeatherDisplay:10.37,2013-04-17 19:28:00,
2013-04-17 14:33:00,85.0,69.6,29.74,NNW,341,13.8,13.8,60,0.00,OVC,,0.02,36.2,WeatherDisplay:10.37,2013-04-17 19:33:00,
2013-04-17 14:38:00,84.7,69.8,29.74,SE,140,16.1,16.1,61,0.00,OVC,,0.02,86.1,WeatherDisplay:10.37,2013-04-17 19:38:00,
2013-04-17 14:43:00,84.5,69.6,29.74,SE,134,9.2,9.2,61,0.00,OVC,,0.02,33.8,WeatherDisplay:10.37,2013-04-17 19:43:00,
2013-04-17 14:48:00,84.6,69.7,29.74,ESE,123,10.4,10.4,61,0.00,OVC,,0.02,30.9,WeatherDisplay:10.37,2013-04-17 19:48:00,
2013-04-17 14:53:00,84.4,69.0,29.74,SE,144,9.2,9.2,60,0.00,OVC,,0.02,24.1,WeatherDisplay:10.37,2013-04-17 19:53:00,
2013-04-17 14:58:00,84.1,69.2,29.74,ESE,113,13.8,13.8,61,0.00,OVC,,0.02,28.3,WeatherDisplay:10.37,2013-04-17 19:58:00,
2013-04-17 15:03:00,83.9,69.5,29.74,SE,134,10.4,10.4,62,0.00,OVC,,0.02,30.9,WeatherDisplay:10.37,2013-04-17 20:03:00,
2013-04-17 15:08:00,83.7,68.8,29.74,ESE,121,17.3,17.3,61,0.00,OVC,,0.02,21.1,WeatherDisplay:10.37,2013-04-17 20:08:00,
2013-04-17 15:13:00,83.4,68.5,29.73,SE,126,9.2,9.2,61,0.00,OVC,,0.02,15.8,WeatherDisplay:10.37,2013-04-17 20:13:00,
2013-04-17 15:18:00,83.0,68.6,29.73,SE,133,11.5,11.5,62,0.00,OVC,,0.02,19.0,WeatherDisplay:10.37,2013-04-17 20:18:00,
2013-04-17 15:23:00,82.7,68.4,29.73,ESE,122,16.1,16.1,62,0.00,OVC,,0.02,22.5,WeatherDisplay:10.37,2013-04-17 20:23:00,
2013-04-17 15:28:00,82.8,68.9,29.72,SSE,151,11.5,11.5,63,0.00,OVC,,0.02,20.9,WeatherDisplay:10.37,2013-04-17 20:28:00,
2013-04-17 15:33:00,82.9,69.0,29.72,ESE,123,10.4,10.4,63,0.00,OVC,,0.02,32.5,WeatherDisplay:10.37,2013-04-17 20:33:00,
2013-04-17 15:38:00,83.2,69.3,29.72,ESE,106,5.8,5.8,63,0.00,OVC,,0.02,26.9,WeatherDisplay:10.37,2013-04-17 20:38:00,
2013-04-17 15:43:00,83.4,69.0,29.71,SSE,161,9.2,9.2,62,0.00,OVC,,0.02,24.4,WeatherDisplay:10.37,2013-04-17 20:43:00,
2013-04-17 15:48:00,83.4,69.0,29.71,South,174,10.4,10.4,62,0.00,OVC,,0.02,26.0,WeatherDisplay:10.37,2013-04-17 20:48:00,
2013-04-17 15:53:00,83.5,69.1,29.71,SSE,149,13.8,13.8,62,0.00,OVC,,0.02,30.1,WeatherDisplay:10.37,2013-04-17 20:53:00,
2013-04-17 15:58:00,83.6,69.2,29.71,SE,143,10.4,10.4,62,0.00,OVC,,0.02,21.6,WeatherDisplay:10.37,2013-04-17 20:58:00,
2013-04-17 16:03:00,83.6,69.2,29.71,SE,131,10.4,10.4,62,0.00,OVC,,0.02,28.8,WeatherDisplay:10.37,2013-04-17 21:03:00,
2013-04-17 16:08:00,83.8,69.4,29.71,SSE,153,10.4,10.4,62,0.00,OVC,,0.02,21.6,WeatherDisplay:10.37,2013-04-17 21:08:00,
2013-04-17 16:13:00,83.7,68.8,29.71,SSE,148,13.8,13.8,61,0.00,OVC,,0.02,14.6,WeatherDisplay:10.37,2013-04-17 21:13:00,
2013-04-17 16:18:00,83.5,69.1,29.71,SE,129,11.5,11.5,62,0.00,OVC,,0.02,30.6,WeatherDisplay:10.37,2013-04-17 21:18:00,
2013-04-17 16:23:00,83.6,69.2,29.70,SE,136,11.5,11.5,62,0.00,OVC,,0.02,17.1,WeatherDisplay:10.37,2013-04-17 21:23:00,
2013-04-17 16:28:00,83.5,69.1,29.70,NE,41,15.0,15.0,62,0.00,OVC,,0.02,20.0,WeatherDisplay:10.37,2013-04-17 21:28:00,
2013-04-17 16:33:00,83.3,68.9,29.70,ESE,123,10.4,10.4,62,0.00,OVC,,0.02,10.4,WeatherDisplay:10.37,2013-04-17 21:33:00,
2013-04-17 16:38:00,83.0,68.6,29.70,SSE,165,18.4,18.4,62,0.00,OVC,,0.02,14.6,WeatherDisplay:10.37,2013-04-17 21:38:00,
2013-04-17 16:43:00,82.8,68.4,29.70,SE,129,13.8,13.8,62,0.00,OVC,,0.02,9.8,WeatherDisplay:10.37,2013-04-17 21:43:00,
2013-04-17 16:48:00,82.6,68.3,29.70,ESE,123,15.0,15.0,62,0.00,OVC,,0.02,9.1,WeatherDisplay:10.37,2013-04-17 21:48:00,
2013-04-17 16:53:00,82.4,68.5,29.70,South,190,6.9,6.9,63,0.00,OVC,,0.02,5.1,WeatherDisplay:10.37,2013-04-17 21:53:00,
2013-04-17 16:58:00,82.2,68.3,29.70,SE,141,6.9,6.9,63,0.00,OVC,,0.02,7.0,WeatherDisplay:10.37,2013-04-17 21:58:00,
2013-04-17 17:03:00,82.1,68.3,29.70,SE,145,12.7,12.7,63,0.00,OVC,,0.02,4.7,WeatherDisplay:10.37,2013-04-17 22:03:00,
2013-04-17 17:08:00,81.9,68.5,29.69,SE,132,15.0,15.0,64,0.00,OVC,,0.02,13.2,WeatherDisplay:10.37,2013-04-17 22:08:00,
2013-04-17 17:13:00,81.9,68.5,29.69,SSE,149,9.2,9.2,64,0.00,OVC,,0.02,17.8,WeatherDisplay:10.37,2013-04-17 22:13:00,
2013-04-17 17:18:00,82.1,68.7,29.68,ESE,123,9.2,9.2,64,0.00,OVC,,0.02,12.7,WeatherDisplay:10.37,2013-04-17 22:18:00,
2013-04-17 17:23:00,82.1,68.7,29.69,SSE,154,12.7,12.7,64,0.00,OVC,,0.02,12.5,WeatherDisplay:10.37,2013-04-17 22:23:00,
2013-04-17 17:28:00,82.0,68.6,29.69,SSE,155,13.8,13.8,64,0.00,OVC,,0.02,10.4,WeatherDisplay:10.37,2013-04-17 22:28:00,
2013-04-17 17:33:00,81.8,68.4,29.69,SE,137,16.1,16.1,64,0.00,OVC,,0.02,11.3,WeatherDisplay:10.37,2013-04-17 22:33:00,
2013-04-17 17:38:00,81.7,68.3,29.69,SSE,158,11.5,11.5,64,0.00,OVC,,0.02,7.0,WeatherDisplay:10.37,2013-04-17 22:38:00,
2013-04-17 17:43:00,81.5,68.6,29.69,ESE,115,11.5,11.5,65,0.00,OVC,,0.02,8.6,WeatherDisplay:10.37,2013-04-17 22:43:00,
2013-04-17 17:48:00,81.3,68.4,29.69,SE,143,10.4,10.4,65,0.00,OVC,,0.02,12.1,WeatherDisplay:10.37,2013-04-17 22:48:00,
2013-04-17 17:53:00,81.4,68.9,29.68,SSE,148,10.4,10.4,66,0.00,OVC,,0.02,18.1,WeatherDisplay:10.37,2013-04-17 22:53:00,
2013-04-17 17:58:00,81.4,68.9,29.68,SE,134,16.1,16.1,66,0.00,OVC,,0.02,21.6,WeatherDisplay:10.37,2013-04-17 22:58:00,
2013-04-17 18:03:00,81.6,69.1,29.68,ESE,119,13.8,13.8,66,0.00,CLR,OVC,0.02,9.8,WeatherDisplay:10.37,2013-04-17 23:03:00,
2013-04-17 18:08:00,81.5,68.6,29.68,SE,140,10.4,10.4,65,0.00,CLR,OVC,0.02,8.1,WeatherDisplay:10.37,2013-04-17 23:08:00,
2013-04-17 18:13:00,81.3,68.4,29.68,ESE,102,15.0,15.0,65,0.00,CLR,OVC,0.02,8.4,WeatherDisplay:10.37,2013-04-17 23:13:00,
2013-04-17 18:18:00,81.1,68.2,29.68,ESE,123,11.5,11.5,65,0.00,CLR,OVC,0.02,6.7,WeatherDisplay:10.37,2013-04-17 23:18:00,
2013-04-17 18:23:00,81.0,68.6,29.68,SE,134,9.2,9.2,66,0.00,CLR,OVC,0.02,6.0,WeatherDisplay:10.37,2013-04-17 23:23:00,
2013-04-17 18:28:00,80.9,68.0,29.68,SE,128,11.5,11.5,65,0.00,CLR,OVC,0.02,5.8,WeatherDisplay:10.37,2013-04-17 23:28:00,
2013-04-17 18:33:00,80.7,68.3,29.68,SE,128,11.5,11.5,66,0.00,CLR,OVC,0.02,3.2,WeatherDisplay:10.37,2013-04-17 23:33:00,
2013-04-17 18:38:00,80.6,68.2,29.67,SSE,154,16.1,16.1,66,0.00,CLR,OVC,0.02,2.1,WeatherDisplay:10.37,2013-04-17 23:38:00,
2013-04-17 18:43:00,80.4,68.0,29.67,SE,128,8.1,8.1,66,0.00,CLR,OVC,0.02,1.6,WeatherDisplay:10.37,2013-04-17 23:43:00,
2013-04-17 18:48:00,80.3,68.3,29.67,SE,128,11.5,11.5,67,0.00,CLR,OVC,0.02,1.4,WeatherDisplay:10.37,2013-04-17 23:48:00,
2013-04-17 18:53:00,80.2,68.2,29.67,South,181,10.4,10.4,67,0.00,CLR,OVC,0.02,1.8,WeatherDisplay:10.37,2013-04-17 23:53:00,
2013-04-17 18:58:00,80.0,68.1,29.67,SE,142,6.9,6.9,67,0.00,BKN,OVC,0.02,2.3,WeatherDisplay:10.37,2013-04-17 23:58:00,
2013-04-17 19:03:00,80.0,68.5,29.67,SSE,159,10.4,10.4,68,0.00,CLR,OVC,0.02,2.1,WeatherDisplay:10.37,2013-04-18 00:03:00,
2013-04-17 19:08:00,79.9,68.4,29.67,SE,136,19.6,19.6,68,0.00,CLR,OVC,0.02,1.9,WeatherDisplay:10.37,2013-04-18 00:08:00,
2013-04-17 19:13:00,79.8,68.3,29.66,SSE,157,13.8,13.8,68,0.00,CLR,OVC,0.02,1.8,WeatherDisplay:10.37,2013-04-18 00:13:00,
2013-04-17 19:18:00,79.7,68.2,29.66,SE,129,10.4,10.4,68,0.00,CLR,OVC,0.02,1.8,WeatherDisplay:10.37,2013-04-18 00:18:00,
2013-04-17 19:23:00,79.6,68.1,29.66,ESE,119,13.8,13.8,68,0.00,CLR,OVC,0.02,1.6,WeatherDisplay:10.37,2013-04-18 00:23:00,